sensor_id;sensor_type;location;lat;lon;timestamp;pressure;altitude;pressure_sealevel;temperature;humidity
78665;BME280;67981;51.022;-2.870;2023-09-08T07:53:18;101413.78;;;20.37;95.31
78665;BME280;67981;51.022;-2.870;2023-09-08T07:55:43;101394.53;;;20.43;95.45
78665;BME280;67981;51.022;-2.870;2023-09-08T07:58:08;101412.00;;;20.48;93.98
78665;BME280;67981;51.022;-2.870;2023-09-08T08:00:34;101399.75;;;20.47;92.71
78665;BME280;67981;51.022;-2.870;2023-09-08T08:03:00;101418.94;;;20.61;93.08
78665;BME280;67981;51.022;-2.870;2023-09-08T08:05:25;101403.22;;;20.54;93.34
78665;BME280;67981;51.022;-2.870;2023-09-08T08:07:51;101421.53;;;20.67;93.26
78665;BME280;67981;51.022;-2.870;2023-09-08T08:10:17;101413.69;;;20.64;94.12
78665;BME280;67981;51.022;-2.870;2023-09-08T08:12:43;101415.44;;;20.59;94.23
78665;BME280;67981;51.022;-2.870;2023-09-08T08:15:10;101436.41;;;20.67;94.18
78665;BME280;67981;51.022;-2.870;2023-09-08T08:17:36;101414.59;;;20.54;94.25
78665;BME280;67981;51.022;-2.870;2023-09-08T08:20:05;101412.84;;;20.56;94.09
78665;BME280;67981;51.022;-2.870;2023-09-08T08:22:35;101405.84;;;20.54;94.12
78665;BME280;67981;51.022;-2.870;2023-09-08T08:25:00;101414.59;;;20.63;94.55
78665;BME280;67981;51.022;-2.870;2023-09-08T08:27:26;101427.63;;;20.75;93.50
78665;BME280;67981;51.022;-2.870;2023-09-08T08:29:51;101433.75;;;20.80;94.06
78665;BME280;67981;51.022;-2.870;2023-09-08T08:32:17;101443.31;;;20.92;94.34
78665;BME280;67981;51.022;-2.870;2023-09-08T08:34:43;101436.31;;;20.94;94.20
78665;BME280;67981;51.022;-2.870;2023-09-08T08:37:10;101447.69;;;21.03;93.62
78665;BME280;67981;51.022;-2.870;2023-09-08T08:39:35;101435.44;;;21.01;93.49
78665;BME280;67981;51.022;-2.870;2023-09-08T08:42:07;101447.59;;;21.20;93.41
78665;BME280;67981;51.022;-2.870;2023-09-08T08:44:34;101421.41;;;21.10;93.56
78665;BME280;67981;51.022;-2.870;2023-09-08T08:47:02;101437.94;;;21.22;92.87
78665;BME280;67981;51.022;-2.870;2023-09-08T08:49:29;101439.66;;;21.32;92.00
78665;BME280;67981;51.022;-2.870;2023-09-08T08:51:56;101435.28;;;21.33;91.31
78665;BME280;67981;51.022;-2.870;2023-09-08T08:54:23;101445.72;;;21.43;92.34
78665;BME280;67981;51.022;-2.870;2023-09-08T08:56:49;101427.38;;;21.37;91.90
78665;BME280;67981;51.022;-2.870;2023-09-08T08:59:15;101438.66;;;21.48;91.97
78665;BME280;67981;51.022;-2.870;2023-09-08T09:01:41;101445.53;;;21.67;91.43
78665;BME280;67981;51.022;-2.870;2023-09-08T09:04:08;101437.66;;;21.67;90.29
78665;BME280;67981;51.022;-2.870;2023-09-08T09:06:34;101454.19;;;21.83;89.29
78665;BME280;67981;51.022;-2.870;2023-09-08T09:09:00;101461.03;;;22.06;88.56
78665;BME280;67981;51.022;-2.870;2023-09-08T09:11:26;101458.03;;;22.44;88.12
78665;BME280;67981;51.022;-2.870;2023-09-08T09:13:51;101435.28;;;22.40;87.91
78665;BME280;67981;51.022;-2.870;2023-09-08T09:16:16;101421.19;;;22.49;87.84
78665;BME280;67981;51.022;-2.870;2023-09-08T09:18:56;101445.38;;;22.82;92.49
78665;BME280;67981;51.022;-2.870;2023-09-08T09:21:22;101453.19;;;22.88;87.71
78665;BME280;67981;51.022;-2.870;2023-09-08T09:23:48;101453.03;;;23.02;86.56
78665;BME280;67981;51.022;-2.870;2023-09-08T09:26:23;101445.09;;;23.05;86.92
78665;BME280;67981;51.022;-2.870;2023-09-08T09:28:50;101476.94;;;23.52;85.16
78665;BME280;67981;51.022;-2.870;2023-09-08T09:31:23;101427.97;;;23.36;84.62
78665;BME280;67981;51.022;-2.870;2023-09-08T09:34:02;101447.91;;;23.55;83.39
78665;BME280;67981;51.022;-2.870;2023-09-08T09:36:30;101455.50;;;23.74;81.53
78665;BME280;67981;51.022;-2.870;2023-09-08T09:39:00;101452.44;;;24.03;79.69
78665;BME280;67981;51.022;-2.870;2023-09-08T09:41:27;101436.50;;;24.09;78.68
78665;BME280;67981;51.022;-2.870;2023-09-08T09:43:54;101442.97;;;24.40;77.29
78665;BME280;67981;51.022;-2.870;2023-09-08T09:46:20;101436.53;;;24.53;76.49
78665;BME280;67981;51.022;-2.870;2023-09-08T09:48:50;101422.25;;;24.65;75.28
78665;BME280;67981;51.022;-2.870;2023-09-08T09:51:17;101397.41;;;24.31;76.40
78665;BME280;67981;51.022;-2.870;2023-09-08T09:53:44;101398.88;;;24.45;76.59
78665;BME280;67981;51.022;-2.870;2023-09-08T09:56:10;101398.75;;;24.53;76.93
78665;BME280;67981;51.022;-2.870;2023-09-08T09:58:37;101379.53;;;24.46;75.60
78665;BME280;67981;51.022;-2.870;2023-09-08T10:01:03;101391.72;;;24.52;74.66
78665;BME280;67981;51.022;-2.870;2023-09-08T10:03:29;101386.44;;;24.52;74.15
78665;BME280;67981;51.022;-2.870;2023-09-08T10:05:56;101360.69;;;24.20;75.05
78665;BME280;67981;51.022;-2.870;2023-09-08T10:08:22;101371.16;;;24.25;76.02
78665;BME280;67981;51.022;-2.870;2023-09-08T10:10:47;101394.59;;;24.40;76.80
78665;BME280;67981;51.022;-2.870;2023-09-08T10:13:18;101382.31;;;24.37;76.10
78665;BME280;67981;51.022;-2.870;2023-09-08T10:15:47;101385.69;;;24.45;76.16
78665;BME280;67981;51.022;-2.870;2023-09-08T10:18:16;101380.88;;;24.65;75.82
78665;BME280;67981;51.022;-2.870;2023-09-08T10:20:44;101386.69;;;24.82;74.96
78665;BME280;67981;51.022;-2.870;2023-09-08T10:23:19;101386.63;;;24.87;75.21
78665;BME280;67981;51.022;-2.870;2023-09-08T10:25:48;101386.31;;;25.00;74.95
78665;BME280;67981;51.022;-2.870;2023-09-08T10:28:19;101392.84;;;25.23;73.34
78665;BME280;67981;51.022;-2.870;2023-09-08T10:30:45;101393.50;;;25.34;72.91
78665;BME280;67981;51.022;-2.870;2023-09-08T10:33:11;101377.47;;;25.41;72.74
78665;BME280;67981;51.022;-2.870;2023-09-08T10:35:38;101398.97;;;25.64;71.74
78665;BME280;67981;51.022;-2.870;2023-09-08T10:38:26;101384.91;;;25.62;70.70
78665;BME280;67981;51.022;-2.870;2023-09-08T10:40:53;101366.88;;;25.43;70.55
78665;BME280;67981;51.022;-2.870;2023-09-08T10:43:19;101355.78;;;25.27;72.79
78665;BME280;67981;51.022;-2.870;2023-09-08T10:45:48;101372.34;;;25.35;73.43
78665;BME280;67981;51.022;-2.870;2023-09-08T10:48:14;101385.56;;;25.70;72.95
78665;BME280;67981;51.022;-2.870;2023-09-08T10:50:41;101365.56;;;25.60;72.61
78665;BME280;67981;51.022;-2.870;2023-09-08T10:53:10;101354.88;;;25.63;72.95
78665;BME280;67981;51.022;-2.870;2023-09-08T10:58:11;101366.03;;;25.76;73.04
78665;BME280;67981;51.022;-2.870;2023-09-08T11:00:48;101363.16;;;25.51;73.80
78665;BME280;67981;51.022;-2.870;2023-09-08T11:03:28;101371.00;;;25.54;76.46
78665;BME280;67981;51.022;-2.870;2023-09-08T11:06:09;101365.50;;;25.62;74.97
78665;BME280;67981;51.022;-2.870;2023-09-08T11:08:42;101355.94;;;25.58;75.52
78665;BME280;67981;51.022;-2.870;2023-09-08T11:11:09;101363.78;;;25.61;76.05
78665;BME280;67981;51.022;-2.870;2023-09-08T11:13:35;101351.63;;;25.54;75.95
78665;BME280;67981;51.022;-2.870;2023-09-08T11:16:01;101358.41;;;25.64;76.59
78665;BME280;67981;51.022;-2.870;2023-09-08T11:18:31;101346.84;;;25.68;75.03
78665;BME280;67981;51.022;-2.870;2023-09-08T11:21:00;101343.31;;;25.69;75.15
78665;BME280;67981;51.022;-2.870;2023-09-08T11:23:27;101349.31;;;25.75;75.78
78665;BME280;67981;51.022;-2.870;2023-09-08T11:25:53;101344.84;;;25.77;75.38
78665;BME280;67981;51.022;-2.870;2023-09-08T11:28:21;101353.59;;;25.79;75.95
78665;BME280;67981;51.022;-2.870;2023-09-08T11:30:47;101359.69;;;25.83;75.88
78665;BME280;67981;51.022;-2.870;2023-09-08T11:33:20;101354.81;;;26.00;75.35
78665;BME280;67981;51.022;-2.870;2023-09-08T11:35:51;101351.41;;;25.96;75.28
78665;BME280;67981;51.022;-2.870;2023-09-08T11:38:18;101344.19;;;26.03;74.05
78665;BME280;67981;51.022;-2.870;2023-09-08T11:40:43;101343.75;;;26.18;73.04
78665;BME280;67981;51.022;-2.870;2023-09-08T11:43:09;101347.16;;;26.23;72.12
78665;BME280;67981;51.022;-2.870;2023-09-08T11:45:35;101342.69;;;26.25;71.25
78665;BME280;67981;51.022;-2.870;2023-09-08T11:48:01;101356.06;;;26.51;71.26
78665;BME280;67981;51.022;-2.870;2023-09-08T11:50:26;101336.66;;;26.51;70.52
78665;BME280;67981;51.022;-2.870;2023-09-08T11:52:53;101345.63;;;26.47;70.96
78665;BME280;67981;51.022;-2.870;2023-09-08T11:55:21;101345.78;;;26.71;70.78
78665;BME280;67981;51.022;-2.870;2023-09-08T11:57:49;101358.53;;;26.88;69.95
78665;BME280;67981;51.022;-2.870;2023-09-08T12:00:17;101360.81;;;27.00;69.14
78665;BME280;67981;51.022;-2.870;2023-09-08T12:02:44;101350.91;;;27.05;69.38
78665;BME280;67981;51.022;-2.870;2023-09-08T12:07:45;101345.13;;;27.20;68.54
78665;BME280;67981;51.022;-2.870;2023-09-08T12:10:11;101330.59;;;27.05;68.46
78665;BME280;67981;51.022;-2.870;2023-09-08T12:15:09;101338.16;;;27.17;68.45
78665;BME280;67981;51.022;-2.870;2023-09-08T12:17:49;101325.59;;;27.22;67.34
78665;BME280;67981;51.022;-2.870;2023-09-08T12:20:15;101344.88;;;27.29;68.01
78665;BME280;67981;51.022;-2.870;2023-09-08T12:22:48;101353.31;;;27.41;68.90
78665;BME280;67981;51.022;-2.870;2023-09-08T12:25:14;101358.00;;;27.59;67.41
78665;BME280;67981;51.022;-2.870;2023-09-08T12:27:39;101346.97;;;27.45;68.09
78665;BME280;67981;51.022;-2.870;2023-09-08T12:30:05;101356.31;;;27.57;67.92
78665;BME280;67981;51.022;-2.870;2023-09-08T12:32:32;101337.91;;;27.52;67.84
78665;BME280;67981;51.022;-2.870;2023-09-08T12:34:58;101348.53;;;27.52;67.22
78665;BME280;67981;51.022;-2.870;2023-09-08T12:37:25;101349.97;;;27.61;67.94
78665;BME280;67981;51.022;-2.870;2023-09-08T12:39:53;101336.03;;;27.56;67.43
78665;BME280;67981;51.022;-2.870;2023-09-08T12:42:19;101348.31;;;27.58;68.48
78665;BME280;67981;51.022;-2.870;2023-09-08T12:44:45;101356.38;;;27.82;68.27
78665;BME280;67981;51.022;-2.870;2023-09-08T12:47:11;101339.75;;;27.76;66.93
78665;BME280;67981;51.022;-2.870;2023-09-08T12:49:37;101324.84;;;27.72;66.59
78665;BME280;67981;51.022;-2.870;2023-09-08T12:52:03;101337.91;;;27.78;66.50
78665;BME280;67981;51.022;-2.870;2023-09-08T12:54:28;101342.22;;;27.81;66.72
78665;BME280;67981;51.022;-2.870;2023-09-08T12:56:54;101343.56;;;27.94;66.69
78665;BME280;67981;51.022;-2.870;2023-09-08T12:59:21;101342.28;;;28.06;67.45
78665;BME280;67981;51.022;-2.870;2023-09-08T13:01:47;101347.13;;;28.18;67.71
78665;BME280;67981;51.022;-2.870;2023-09-08T13:04:12;101328.25;;;28.02;66.95
78665;BME280;67981;51.022;-2.870;2023-09-08T13:06:37;101337.38;;;27.94;67.15
78665;BME280;67981;51.022;-2.870;2023-09-08T13:09:03;101337.69;;;28.11;67.05
78665;BME280;67981;51.022;-2.870;2023-09-08T13:11:28;101328.50;;;28.19;65.90
78665;BME280;67981;51.022;-2.870;2023-09-08T13:13:54;101328.38;;;28.22;66.27
78665;BME280;67981;51.022;-2.870;2023-09-08T13:16:19;101320.78;;;28.36;66.03
78665;BME280;67981;51.022;-2.870;2023-09-08T13:18:44;101330.91;;;28.50;65.77
78665;BME280;67981;51.022;-2.870;2023-09-08T13:21:11;101312.44;;;28.24;65.85
78665;BME280;67981;51.022;-2.870;2023-09-08T13:23:36;101331.81;;;28.50;65.75
78665;BME280;67981;51.022;-2.870;2023-09-08T13:26:02;101322.56;;;28.36;65.65
78665;BME280;67981;51.022;-2.870;2023-09-08T13:28:27;101331.63;;;28.55;66.86
78665;BME280;67981;51.022;-2.870;2023-09-08T13:30:52;101328.38;;;28.70;67.43
78665;BME280;67981;51.022;-2.870;2023-09-08T13:33:18;101290.94;;;28.30;65.42
78665;BME280;67981;51.022;-2.870;2023-09-08T13:35:43;101312.66;;;28.41;66.85
78665;BME280;67981;51.022;-2.870;2023-09-08T13:38:08;101331.75;;;28.75;65.42
78665;BME280;67981;51.022;-2.870;2023-09-08T13:40:34;101312.38;;;28.94;64.99
78665;BME280;67981;51.022;-2.870;2023-09-08T13:42:59;101306.22;;;28.92;65.74
78665;BME280;67981;51.022;-2.870;2023-09-08T13:45:25;101315.81;;;28.96;65.82
78665;BME280;67981;51.022;-2.870;2023-09-08T13:47:51;101324.09;;;28.89;66.05
78665;BME280;67981;51.022;-2.870;2023-09-08T13:50:17;101320.09;;;29.00;65.21
78665;BME280;67981;51.022;-2.870;2023-09-08T13:52:42;101323.63;;;29.23;65.38
78665;BME280;67981;51.022;-2.870;2023-09-08T13:55:09;101322.59;;;29.27;66.50
78665;BME280;67981;51.022;-2.870;2023-09-08T13:57:36;101283.75;;;29.01;64.69
78665;BME280;67981;51.022;-2.870;2023-09-08T14:00:04;101301.69;;;29.18;64.63
78665;BME280;67981;51.022;-2.870;2023-09-08T14:02:29;101299.47;;;29.07;64.87
78665;BME280;67981;51.022;-2.870;2023-09-08T14:04:55;101288.72;;;28.87;64.71
78665;BME280;67981;51.022;-2.870;2023-09-08T14:07:20;101302.50;;;28.96;65.31
78665;BME280;67981;51.022;-2.870;2023-09-08T14:09:45;101322.50;;;29.06;66.03
78665;BME280;67981;51.022;-2.870;2023-09-08T14:12:11;101307.31;;;29.10;65.84
78665;BME280;67981;51.022;-2.870;2023-09-08T14:14:36;101311.34;;;29.20;64.97
78665;BME280;67981;51.022;-2.870;2023-09-08T14:17:02;101313.38;;;29.14;64.50
78665;BME280;67981;51.022;-2.870;2023-09-08T14:19:28;101296.50;;;29.15;63.53
78665;BME280;67981;51.022;-2.870;2023-09-08T14:21:53;101313.13;;;29.20;63.54
78665;BME280;67981;51.022;-2.870;2023-09-08T14:24:19;101312.78;;;29.49;62.60
78665;BME280;67981;51.022;-2.870;2023-09-08T14:26:44;101315.94;;;29.58;63.39
78665;BME280;67981;51.022;-2.870;2023-09-08T14:29:10;101320.88;;;29.67;63.30
78665;BME280;67981;51.022;-2.870;2023-09-08T14:31:35;101306.78;;;29.24;64.68
78665;BME280;67981;51.022;-2.870;2023-09-08T14:34:01;101311.84;;;29.30;64.23
78665;BME280;67981;51.022;-2.870;2023-09-08T14:36:26;101300.75;;;28.74;65.53
78665;BME280;67981;51.022;-2.870;2023-09-08T14:38:51;101293.53;;;28.77;65.99
78665;BME280;67981;51.022;-2.870;2023-09-08T14:41:17;101306.00;;;28.75;66.87
78665;BME280;67981;51.022;-2.870;2023-09-08T14:43:42;101315.69;;;28.78;67.56
78665;BME280;67981;51.022;-2.870;2023-09-08T14:46:08;101312.44;;;28.93;67.27
78665;BME280;67981;51.022;-2.870;2023-09-08T14:48:33;101303.06;;;29.04;64.99
78665;BME280;67981;51.022;-2.870;2023-09-08T14:50:59;101307.63;;;29.24;64.64
78665;BME280;67981;51.022;-2.870;2023-09-08T14:53:25;101312.06;;;29.45;63.94
78665;BME280;67981;51.022;-2.870;2023-09-08T14:55:53;101277.25;;;29.30;64.81
78665;BME280;67981;51.022;-2.870;2023-09-08T14:58:22;101295.63;;;29.36;64.56
78665;BME280;67981;51.022;-2.870;2023-09-08T15:00:48;101298.41;;;29.33;63.51
78665;BME280;67981;51.022;-2.870;2023-09-08T15:03:15;101277.13;;;29.11;63.24
78665;BME280;67981;51.022;-2.870;2023-09-08T15:05:40;101297.31;;;29.17;64.29
78665;BME280;67981;51.022;-2.870;2023-09-08T15:08:06;101307.81;;;29.20;65.01
78665;BME280;67981;51.022;-2.870;2023-09-08T15:10:31;101273.84;;;28.83;64.61
78665;BME280;67981;51.022;-2.870;2023-09-08T15:12:57;101290.81;;;28.79;65.46
78665;BME280;67981;51.022;-2.870;2023-09-08T15:15:22;101293.19;;;28.86;65.84
78665;BME280;67981;51.022;-2.870;2023-09-08T15:17:54;101286.81;;;28.69;66.38
78665;BME280;67981;51.022;-2.870;2023-09-08T15:20:20;101294.03;;;28.65;66.88
78665;BME280;67981;51.022;-2.870;2023-09-08T15:22:46;101292.59;;;28.57;67.53
78665;BME280;67981;51.022;-2.870;2023-09-08T15:25:12;101299.47;;;28.62;67.34
78665;BME280;67981;51.022;-2.870;2023-09-08T15:27:38;101299.06;;;28.50;67.28
78665;BME280;67981;51.022;-2.870;2023-09-08T15:30:04;101292.03;;;28.49;68.46
78665;BME280;67981;51.022;-2.870;2023-09-08T15:32:29;101289.69;;;28.40;68.51
78665;BME280;67981;51.022;-2.870;2023-09-08T15:34:55;101282.63;;;28.39;68.67
78665;BME280;67981;51.022;-2.870;2023-09-08T15:37:20;101294.75;;;28.46;70.21
78665;BME280;67981;51.022;-2.870;2023-09-08T15:39:45;101308.53;;;28.57;68.79
78665;BME280;67981;51.022;-2.870;2023-09-08T15:42:14;101305.50;;;28.66;67.62
78665;BME280;67981;51.022;-2.870;2023-09-08T15:44:39;101293.75;;;28.50;68.31
78665;BME280;67981;51.022;-2.870;2023-09-08T15:47:04;101303.16;;;28.34;69.22
78665;BME280;67981;51.022;-2.870;2023-09-08T15:49:30;101287.91;;;28.17;70.19
78665;BME280;67981;51.022;-2.870;2023-09-08T15:51:55;101303.06;;;27.89;71.41
78665;BME280;67981;51.022;-2.870;2023-09-08T15:54:21;101312.31;;;28.02;70.45
78665;BME280;67981;51.022;-2.870;2023-09-08T15:56:47;101320.13;;;28.07;70.62
78665;BME280;67981;51.022;-2.870;2023-09-08T15:59:13;101303.50;;;28.02;70.92
78665;BME280;67981;51.022;-2.870;2023-09-08T16:01:39;101319.81;;;28.14;71.60
78665;BME280;67981;51.022;-2.870;2023-09-08T16:04:04;101307.50;;;27.87;71.82
78665;BME280;67981;51.022;-2.870;2023-09-08T16:06:34;101297.59;;;27.67;73.15
78665;BME280;67981;51.022;-2.870;2023-09-08T16:09:00;101308.53;;;27.58;74.25
78665;BME280;67981;51.022;-2.870;2023-09-08T16:11:25;101324.78;;;27.74;73.73
78665;BME280;67981;51.022;-2.870;2023-09-08T16:13:50;101309.31;;;27.62;74.46
78665;BME280;67981;51.022;-2.870;2023-09-08T16:16:17;101297.31;;;27.50;74.86
78665;BME280;67981;51.022;-2.870;2023-09-08T16:18:42;101289.69;;;27.14;75.28
78665;BME280;67981;51.022;-2.870;2023-09-08T16:21:08;101290.16;;;26.99;75.47
78665;BME280;67981;51.022;-2.870;2023-09-08T16:23:33;101300.19;;;26.89;76.15
78665;BME280;67981;51.022;-2.870;2023-09-08T16:25:58;101302.31;;;26.78;76.45
78665;BME280;67981;51.022;-2.870;2023-09-08T16:28:24;101317.00;;;26.88;76.46
78665;BME280;67981;51.022;-2.870;2023-09-08T16:30:49;101316.19;;;26.86;76.62
78665;BME280;67981;51.022;-2.870;2023-09-08T16:33:14;101287.81;;;26.61;77.27
78665;BME280;67981;51.022;-2.870;2023-09-08T16:35:40;101309.66;;;26.69;77.59
78665;BME280;67981;51.022;-2.870;2023-09-08T16:38:07;101299.50;;;26.54;77.74
78665;BME280;67981;51.022;-2.870;2023-09-08T16:40:32;101290.41;;;26.33;78.49
78665;BME280;67981;51.022;-2.870;2023-09-08T16:42:58;101306.09;;;26.39;78.86
78665;BME280;67981;51.022;-2.870;2023-09-08T16:45:28;101325.41;;;26.42;79.04
78665;BME280;67981;51.022;-2.870;2023-09-08T16:47:53;101327.22;;;26.40;79.37
78665;BME280;67981;51.022;-2.870;2023-09-08T16:50:18;101325.41;;;26.42;78.86
78665;BME280;67981;51.022;-2.870;2023-09-08T16:52:44;101321.94;;;26.40;79.35
78665;BME280;67981;51.022;-2.870;2023-09-08T16:55:09;101320.22;;;26.39;79.84
78665;BME280;67981;51.022;-2.870;2023-09-08T16:57:39;101318.66;;;26.32;80.37
78665;BME280;67981;51.022;-2.870;2023-09-08T17:00:06;101325.88;;;26.26;80.61
78665;BME280;67981;51.022;-2.870;2023-09-08T17:02:33;101330.94;;;26.35;80.79
78665;BME280;67981;51.022;-2.870;2023-09-08T17:04:58;101326.59;;;26.32;81.09
78665;BME280;67981;51.022;-2.870;2023-09-08T17:07:23;101330.25;;;26.28;81.50
78665;BME280;67981;51.022;-2.870;2023-09-08T17:09:49;101325.09;;;26.24;81.82
78665;BME280;67981;51.022;-2.870;2023-09-08T17:12:14;101322.81;;;26.10;83.12
78665;BME280;67981;51.022;-2.870;2023-09-08T17:14:39;101331.63;;;26.11;83.57
78665;BME280;67981;51.022;-2.870;2023-09-08T17:17:05;101330.28;;;25.95;84.28
78665;BME280;67981;51.022;-2.870;2023-09-08T17:19:30;101320.88;;;25.83;84.51
78665;BME280;67981;51.022;-2.870;2023-09-08T17:21:55;101317.53;;;25.77;85.29
78665;BME280;67981;51.022;-2.870;2023-09-08T17:24:23;101309.03;;;25.66;86.27
78665;BME280;67981;51.022;-2.870;2023-09-08T17:26:48;101316.16;;;25.62;87.16
78665;BME280;67981;51.022;-2.870;2023-09-08T17:29:13;101313.75;;;25.52;88.02
78665;BME280;67981;51.022;-2.870;2023-09-08T17:31:39;101313.81;;;25.50;88.33
78665;BME280;67981;51.022;-2.870;2023-09-08T17:34:06;101301.88;;;25.33;89.65
78665;BME280;67981;51.022;-2.870;2023-09-08T17:36:32;101310.16;;;25.19;90.53
78665;BME280;67981;51.022;-2.870;2023-09-08T17:38:57;101283.91;;;24.75;90.70
78665;BME280;67981;51.022;-2.870;2023-09-08T17:41:23;101272.44;;;24.35;91.61
78665;BME280;67981;51.022;-2.870;2023-09-08T17:43:48;101260.78;;;24.04;91.60
78665;BME280;67981;51.022;-2.870;2023-09-08T17:46:14;101260.34;;;23.81;92.45
78665;BME280;67981;51.022;-2.870;2023-09-08T17:48:39;101277.31;;;23.66;93.63
78665;BME280;67981;51.022;-2.870;2023-09-08T17:51:04;101279.41;;;23.46;95.34
78665;BME280;67981;51.022;-2.870;2023-09-08T17:53:30;101281.47;;;23.29;96.50
78665;BME280;67981;51.022;-2.870;2023-09-08T17:56:00;101300.69;;;23.35;97.09
78665;BME280;67981;51.022;-2.870;2023-09-08T17:58:26;101285.19;;;23.14;96.74
78665;BME280;67981;51.022;-2.870;2023-09-08T18:00:51;101288.94;;;23.00;97.45
78665;BME280;67981;51.022;-2.870;2023-09-08T18:03:16;101300.34;;;22.99;97.68
78665;BME280;67981;51.022;-2.870;2023-09-08T18:05:42;101308.28;;;22.96;97.61
78665;BME280;67981;51.022;-2.870;2023-09-08T18:08:08;101311.69;;;23.02;97.21
78665;BME280;67981;51.022;-2.870;2023-09-08T18:10:34;101310.81;;;23.05;97.12
78665;BME280;67981;51.022;-2.870;2023-09-08T18:12:59;101312.56;;;23.03;96.91
78665;BME280;67981;51.022;-2.870;2023-09-08T18:15:24;101318.03;;;22.89;96.80
78665;BME280;67981;51.022;-2.870;2023-09-08T18:17:50;101307.78;;;22.70;97.00
78665;BME280;67981;51.022;-2.870;2023-09-08T18:20:15;101306.25;;;22.52;98.25
78665;BME280;67981;51.022;-2.870;2023-09-08T18:22:41;101314.97;;;22.57;99.44
78665;BME280;67981;51.022;-2.870;2023-09-08T18:25:06;101310.69;;;22.45;100.00
78665;BME280;67981;51.022;-2.870;2023-09-08T18:27:32;101308.16;;;22.39;100.00
78665;BME280;67981;51.022;-2.870;2023-09-08T18:29:57;101292.53;;;22.27;100.00
78665;BME280;67981;51.022;-2.870;2023-09-08T18:32:23;101333.56;;;22.39;100.00
78665;BME280;67981;51.022;-2.870;2023-09-08T18:34:48;101339.81;;;22.32;100.00
78665;BME280;67981;51.022;-2.870;2023-09-08T18:37:14;101325.97;;;22.18;100.00
78665;BME280;67981;51.022;-2.870;2023-09-08T18:39:39;101333.88;;;22.13;100.00
78665;BME280;67981;51.022;-2.870;2023-09-08T18:42:05;101339.25;;;22.03;100.00
78665;BME280;67981;51.022;-2.870;2023-09-08T18:44:30;101338.47;;;21.93;100.00
78665;BME280;67981;51.022;-2.870;2023-09-08T18:46:55;101341.16;;;21.90;100.00
78665;BME280;67981;51.022;-2.870;2023-09-08T18:49:21;101322.91;;;21.71;100.00
78665;BME280;67981;51.022;-2.870;2023-09-08T18:51:47;101358.69;;;21.88;100.00
78665;BME280;67981;51.022;-2.870;2023-09-08T18:54:13;101356.13;;;21.78;100.00
78665;BME280;67981;51.022;-2.870;2023-09-08T18:56:38;101359.69;;;21.71;100.00
78665;BME280;67981;51.022;-2.870;2023-09-08T18:59:04;101371.03;;;21.80;100.00
78665;BME280;67981;51.022;-2.870;2023-09-08T19:01:29;101352.81;;;21.55;100.00
78665;BME280;67981;51.022;-2.870;2023-09-08T19:03:54;101354.63;;;21.48;100.00
78665;BME280;67981;51.022;-2.870;2023-09-08T19:06:20;101366.84;;;21.52;100.00
78665;BME280;67981;51.022;-2.870;2023-09-08T19:08:45;101360.78;;;21.43;100.00
78665;BME280;67981;51.022;-2.870;2023-09-08T19:11:11;101374.78;;;21.46;100.00
78665;BME280;67981;51.022;-2.870;2023-09-08T19:13:36;101360.84;;;21.37;100.00
78665;BME280;67981;51.022;-2.870;2023-09-08T19:16:01;101372.28;;;21.27;100.00
78665;BME280;67981;51.022;-2.870;2023-09-08T19:18:27;101375.81;;;21.24;100.00
78665;BME280;67981;51.022;-2.870;2023-09-08T19:20:52;101367.13;;;21.13;100.00
78665;BME280;67981;51.022;-2.870;2023-09-08T19:23:18;101373.22;;;21.17;100.00
78665;BME280;67981;51.022;-2.870;2023-09-08T19:25:44;101377.56;;;21.24;100.00
78665;BME280;67981;51.022;-2.870;2023-09-08T19:28:09;101372.34;;;21.18;100.00
78665;BME280;67981;51.022;-2.870;2023-09-08T19:30:36;101372.34;;;21.19;100.00
78665;BME280;67981;51.022;-2.870;2023-09-08T19:33:02;101388.06;;;21.22;100.00
78665;BME280;67981;51.022;-2.870;2023-09-08T19:35:27;101379.41;;;21.08;100.00
78665;BME280;67981;51.022;-2.870;2023-09-08T19:37:53;101383.81;;;21.04;100.00
78665;BME280;67981;51.022;-2.870;2023-09-08T19:40:18;101389.91;;;21.08;100.00
78665;BME280;67981;51.022;-2.870;2023-09-08T19:42:44;101380.34;;;20.98;100.00
78665;BME280;67981;51.022;-2.870;2023-09-08T19:45:10;101387.28;;;21.07;100.00
78665;BME280;67981;51.022;-2.870;2023-09-08T19:47:35;101384.69;;;21.00;100.00
78665;BME280;67981;51.022;-2.870;2023-09-08T19:50:00;101383.78;;;21.06;100.00
78665;BME280;67981;51.022;-2.870;2023-09-08T19:52:26;101375.97;;;20.91;100.00
78665;BME280;67981;51.022;-2.870;2023-09-08T19:54:51;101363.72;;;20.97;100.00
78665;BME280;67981;51.022;-2.870;2023-09-08T19:57:17;101369.88;;;20.87;100.00
78665;BME280;67981;51.022;-2.870;2023-09-08T19:59:42;101384.69;;;20.97;100.00
78665;BME280;67981;51.022;-2.870;2023-09-08T20:02:09;101380.38;;;20.89;100.00
78665;BME280;67981;51.022;-2.870;2023-09-08T20:04:34;101384.69;;;20.93;100.00
78665;BME280;67981;51.022;-2.870;2023-09-08T20:07:00;101392.56;;;20.94;100.00
78665;BME280;67981;51.022;-2.870;2023-09-08T20:09:26;101379.50;;;20.84;100.00
78665;BME280;67981;51.022;-2.870;2023-09-08T20:11:51;101391.72;;;20.89;100.00
78665;BME280;67981;51.022;-2.870;2023-09-08T20:14:18;101388.25;;;20.83;100.00
78665;BME280;67981;51.022;-2.870;2023-09-08T20:16:43;101390.00;;;20.84;100.00
78665;BME280;67981;51.022;-2.870;2023-09-08T20:19:09;101395.25;;;20.82;100.00
78665;BME280;67981;51.022;-2.870;2023-09-08T20:21:34;101400.47;;;20.91;100.00
78665;BME280;67981;51.022;-2.870;2023-09-08T20:24:00;101414.38;;;21.08;100.00
78665;BME280;67981;51.022;-2.870;2023-09-08T20:26:30;101430.03;;;21.27;100.00
78665;BME280;67981;51.022;-2.870;2023-09-08T20:28:55;101423.91;;;21.32;100.00
78665;BME280;67981;51.022;-2.870;2023-09-08T20:31:21;101422.13;;;21.36;100.00
78665;BME280;67981;51.022;-2.870;2023-09-08T20:33:46;101425.56;;;21.47;100.00